createdAt,value
2023-04-16T00:02:01.122Z,5.38
2023-04-16T00:04:28.046Z,5.37
2023-04-16T00:06:55.114Z,5.24
2023-04-16T00:09:21.959Z,5.30
2023-04-16T00:11:48.846Z,5.48
2023-04-16T00:14:15.700Z,5.44
2023-04-16T00:16:42.638Z,5.20
2023-04-16T00:19:09.866Z,5.17
2023-04-16T00:21:36.991Z,5.08
2023-04-16T00:24:03.995Z,5.18
2023-04-16T00:26:31.163Z,5.34
2023-04-16T00:28:58.624Z,5.17
2023-04-16T00:31:30.385Z,5.30
2023-04-16T00:33:57.845Z,5.40
2023-04-16T00:36:25.877Z,5.39
2023-04-16T00:38:53.490Z,5.31
2023-04-16T00:41:20.602Z,5.31
2023-04-16T00:43:47.474Z,5.34
2023-04-16T00:46:15.189Z,5.26
2023-04-16T00:48:44.015Z,5.39
2023-04-16T00:51:11.747Z,5.42
2023-04-16T00:53:38.739Z,4.86
2023-04-16T00:56:07.038Z,5.41
2023-04-16T00:58:35.483Z,5.36
2023-04-16T01:01:02.699Z,5.29
2023-04-16T01:03:41.556Z,5.39
2023-04-16T01:06:08.622Z,5.30
2023-04-16T01:08:35.549Z,5.33
2023-04-16T01:11:02.555Z,5.38
2023-04-16T01:13:29.883Z,5.32
2023-04-16T01:15:56.862Z,5.35
2023-04-16T01:18:24.486Z,5.40
2023-04-16T01:20:51.856Z,5.38
2023-04-16T01:23:19.489Z,5.15
2023-04-16T01:25:47.277Z,5.04
2023-04-16T01:28:14.304Z,5.13
2023-04-16T01:30:41.756Z,5.17
2023-04-16T01:33:29.021Z,5.14
2023-04-16T01:35:55.912Z,5.29
2023-04-16T01:38:22.890Z,4.94
2023-04-16T01:40:49.725Z,5.17
2023-04-16T01:43:16.641Z,5.19
2023-04-16T01:45:43.581Z,5.22
2023-04-16T01:48:12.322Z,5.32
2023-04-16T01:50:39.343Z,5.09
2023-04-16T01:53:06.261Z,5.29
2023-04-16T01:55:34.676Z,5.10
2023-04-16T01:58:01.765Z,5.24
2023-04-16T02:00:32.879Z,5.37
2023-04-16T02:03:00.470Z,5.18
2023-04-16T02:05:28.688Z,5.19
2023-04-16T02:07:55.594Z,5.04
2023-04-16T02:10:22.447Z,5.32
2023-04-16T02:12:49.871Z,5.04
2023-04-16T02:15:16.873Z,5.18
2023-04-16T02:17:44.239Z,5.02
2023-04-16T02:20:11.703Z,5.01
2023-04-16T02:22:45.137Z,5.17
2023-04-16T02:25:15.062Z,5.09
2023-04-16T02:27:42.938Z,5.13
2023-04-16T02:30:24.956Z,5.16
2023-04-16T02:32:52.917Z,5.13
2023-04-16T02:35:20.479Z,5.27
2023-04-16T02:37:47.339Z,5.13
2023-04-16T02:40:14.409Z,5.25
2023-04-16T02:42:41.292Z,5.07
2023-04-16T02:45:09.206Z,4.83
2023-04-16T02:47:36.225Z,5.20
2023-04-16T02:50:04.033Z,5.14
2023-04-16T02:52:32.519Z,5.44
2023-04-16T02:55:00.039Z,5.36
2023-04-16T02:57:26.906Z,5.35
2023-04-16T02:59:53.974Z,5.06
2023-04-16T03:02:20.955Z,5.46
2023-04-16T03:04:47.884Z,5.22
2023-04-16T03:07:14.845Z,5.50
2023-04-16T03:09:41.726Z,5.38
2023-04-16T03:12:08.597Z,5.43
2023-04-16T03:14:35.544Z,5.34
2023-04-16T03:17:02.643Z,5.38
2023-04-16T03:19:29.453Z,5.48
2023-04-16T03:21:56.437Z,5.34
2023-04-16T03:24:23.371Z,5.36
2023-04-16T03:26:50.283Z,5.24
2023-04-16T03:29:17.807Z,5.38
2023-04-16T03:31:45.037Z,5.42
2023-04-16T03:34:12.047Z,5.42
2023-04-16T03:36:40.429Z,5.32
2023-04-16T03:39:07.498Z,5.31
2023-04-16T03:41:34.654Z,5.33
2023-04-16T03:44:02.860Z,5.46
2023-04-16T03:46:29.862Z,5.25
2023-04-16T03:48:57.234Z,5.30
2023-04-16T03:51:24.489Z,5.28
2023-04-16T03:53:51.913Z,5.28
2023-04-16T03:56:19.353Z,5.45
2023-04-16T03:58:46.235Z,5.30
2023-04-16T04:01:13.098Z,5.41
2023-04-16T04:03:40.509Z,5.42
2023-04-16T04:06:10.805Z,5.39
2023-04-16T04:08:37.680Z,5.20
2023-04-16T04:11:05.591Z,5.32
2023-04-16T04:13:34.402Z,5.34
2023-04-16T04:16:01.341Z,5.20
2023-04-16T04:18:28.895Z,5.26
2023-04-16T04:20:55.809Z,4.97
2023-04-16T04:23:26.957Z,5.18
2023-04-16T04:25:53.831Z,5.23
2023-04-16T04:28:20.746Z,5.09
2023-04-16T04:30:47.977Z,5.17
2023-04-16T04:33:15.235Z,5.21
2023-04-16T04:35:42.446Z,5.18
2023-04-16T04:38:09.424Z,5.21
2023-04-16T04:40:36.346Z,5.23
2023-04-16T04:43:04.068Z,5.24
2023-04-16T04:45:32.031Z,5.07
2023-04-16T04:47:59.399Z,5.14
2023-04-16T04:50:26.538Z,5.13
2023-04-16T04:52:53.375Z,5.08
2023-04-16T04:55:20.287Z,4.98
2023-04-16T04:57:47.161Z,5.22
2023-04-16T05:00:14.114Z,5.03
2023-04-16T05:02:48.346Z,5.00
2023-04-16T05:05:15.370Z,4.96
2023-04-16T05:07:42.254Z,5.04
2023-04-16T05:10:09.548Z,4.99
2023-04-16T05:12:36.554Z,5.03
2023-04-16T05:15:03.570Z,5.28
2023-04-16T05:17:30.561Z,5.16
2023-04-16T05:19:57.452Z,5.28
2023-04-16T05:22:24.357Z,5.32
2023-04-16T05:24:51.294Z,5.40
2023-04-16T05:27:18.180Z,5.46
2023-04-16T05:29:45.017Z,5.39
2023-04-16T05:32:11.932Z,5.38
2023-04-16T05:34:38.767Z,5.21
2023-04-16T05:37:05.837Z,5.22
2023-04-16T05:39:32.689Z,5.40
2023-04-16T05:41:59.572Z,5.32
2023-04-16T05:44:26.528Z,5.49
2023-04-16T05:46:53.348Z,5.53
2023-04-16T05:49:20.541Z,5.51
2023-04-16T05:51:47.449Z,5.54
2023-04-16T05:54:14.402Z,5.37
2023-04-16T05:56:41.284Z,5.58
2023-04-16T05:59:08.302Z,5.56
2023-04-16T06:01:35.356Z,5.59
2023-04-16T06:04:02.673Z,5.46
2023-04-16T06:06:29.650Z,5.49
2023-04-16T06:08:56.681Z,5.54
2023-04-16T06:11:23.690Z,5.55
2023-04-16T06:13:50.625Z,5.60
2023-04-16T06:16:17.551Z,5.67
2023-04-16T06:18:44.383Z,5.80
2023-04-16T06:21:11.329Z,5.51
2023-04-16T06:23:38.205Z,5.82
2023-04-16T06:26:05.829Z,5.81
2023-04-16T06:28:32.727Z,5.84
2023-04-16T06:31:00.776Z,5.86
2023-04-16T06:33:27.692Z,5.73
2023-04-16T06:35:54.593Z,5.93
2023-04-16T06:38:21.544Z,5.79
2023-04-16T06:40:49.937Z,6.17
2023-04-16T06:43:18.139Z,6.23
2023-04-16T06:45:45.601Z,6.30
2023-04-16T06:48:12.543Z,6.27
2023-04-16T06:50:39.433Z,6.04
2023-04-16T06:53:09.312Z,6.03
2023-04-16T06:55:36.198Z,6.14
2023-04-16T06:58:03.031Z,6.25
2023-04-16T07:00:29.884Z,6.03
2023-04-16T07:02:58.364Z,6.24
2023-04-16T07:05:25.975Z,6.14
2023-04-16T07:07:52.877Z,6.12
2023-04-16T07:10:19.726Z,6.42
2023-04-16T07:12:46.660Z,6.44
2023-04-16T07:15:13.569Z,6.22
2023-04-16T07:17:40.618Z,6.46
2023-04-16T07:20:08.245Z,6.62
2023-04-16T07:22:35.094Z,6.55
2023-04-16T07:25:01.959Z,6.31
2023-04-16T07:27:28.827Z,6.37
2023-04-16T07:29:55.981Z,6.44
2023-04-16T07:32:23.164Z,6.58
2023-04-16T07:34:50.241Z,6.46
2023-04-16T07:37:17.068Z,6.42
2023-04-16T07:39:43.912Z,6.53
2023-04-16T07:42:10.742Z,6.51
2023-04-16T07:44:37.593Z,6.41
2023-04-16T07:47:05.590Z,6.61
2023-04-16T07:49:32.870Z,6.63
2023-04-16T07:51:59.798Z,6.68
2023-04-16T07:54:28.860Z,6.84
2023-04-16T07:56:56.133Z,6.79
2023-04-16T07:59:24.283Z,6.49
2023-04-16T08:01:53.466Z,6.53
2023-04-16T08:04:25.445Z,6.59
2023-04-16T08:06:52.941Z,6.14
2023-04-16T08:09:21.848Z,6.89
2023-04-16T08:11:50.150Z,6.90
2023-04-16T08:14:17.766Z,7.11
2023-04-16T08:16:45.129Z,7.17
2023-04-16T08:19:12.386Z,6.84
2023-04-16T08:21:39.628Z,6.87
2023-04-16T08:24:06.929Z,6.93
2023-04-16T08:26:33.775Z,6.59
2023-04-16T08:29:00.679Z,6.88
2023-04-16T08:31:27.722Z,6.74
2023-04-16T08:33:54.712Z,6.71
2023-04-16T08:36:21.538Z,6.88
2023-04-16T08:38:48.453Z,6.92
2023-04-16T08:41:16.285Z,7.00
2023-04-16T08:43:45.703Z,7.00
2023-04-16T08:46:12.996Z,7.28
2023-04-16T08:48:43.165Z,7.37
2023-04-16T08:51:11.311Z,7.13
2023-04-16T08:54:12.426Z,7.23
2023-04-16T08:56:43.159Z,7.07
2023-04-16T08:59:10.985Z,7.11
2023-04-16T09:01:39.946Z,7.46
2023-04-16T09:04:07.658Z,7.30
2023-04-16T09:06:35.334Z,7.23
2023-04-16T09:09:04.922Z,7.20
2023-04-16T09:11:32.195Z,7.15
2023-04-16T09:14:00.859Z,7.26
2023-04-16T09:16:30.940Z,7.51
2023-04-16T09:18:57.837Z,7.62
2023-04-16T09:21:26.169Z,7.72
2023-04-16T09:23:53.936Z,8.21
2023-04-16T09:26:22.064Z,8.09
2023-04-16T09:28:51.511Z,7.86
2023-04-16T09:31:19.810Z,7.88
2023-04-16T09:34:09.333Z,8.19
2023-04-16T09:36:37.108Z,7.84
2023-04-16T09:39:04.314Z,8.34
2023-04-16T09:41:33.362Z,8.21
2023-04-16T09:44:02.407Z,8.52
2023-04-16T09:46:37.221Z,8.81
2023-04-16T09:49:15.015Z,8.88
2023-04-16T09:51:42.645Z,8.54
2023-04-16T09:54:10.095Z,8.58
2023-04-16T09:56:44.551Z,8.65
2023-04-16T09:59:18.360Z,8.65
2023-04-16T10:01:49.866Z,8.48
2023-04-16T10:04:17.426Z,8.63
2023-04-16T10:06:45.080Z,8.93
2023-04-16T10:09:12.359Z,9.07
2023-04-16T10:11:39.973Z,9.17
2023-04-16T10:14:06.938Z,9.27
2023-04-16T10:16:34.823Z,8.87
2023-04-16T10:19:02.373Z,8.73
2023-04-16T10:21:34.431Z,9.16
2023-04-16T10:24:01.961Z,8.82
2023-04-16T10:26:30.742Z,9.36
2023-04-16T10:28:58.913Z,9.63
2023-04-16T10:31:29.367Z,9.52
2023-04-16T10:33:57.007Z,9.69
2023-04-16T10:36:26.586Z,9.90
2023-04-16T10:38:58.746Z,9.65
2023-04-16T10:41:27.011Z,9.66
2023-04-16T10:44:03.511Z,9.99
2023-04-16T10:46:37.927Z,9.41
2023-04-16T10:49:19.370Z,9.51
2023-04-16T10:51:56.295Z,9.37
2023-04-16T10:54:30.904Z,9.23
2023-04-16T10:57:01.654Z,9.32
2023-04-16T10:59:35.392Z,9.42
2023-04-16T11:02:13.221Z,10.03
2023-04-16T11:04:44.105Z,10.40
2023-04-16T11:07:14.264Z,10.45
2023-04-16T11:09:51.272Z,10.50
2023-04-16T11:12:34.632Z,10.03
2023-04-16T11:15:06.737Z,10.46
2023-04-16T11:17:41.277Z,10.28
2023-04-16T11:20:17.629Z,10.24
2023-04-16T11:22:46.820Z,9.95
2023-04-16T11:25:13.641Z,10.26
2023-04-16T11:27:41.330Z,10.12
2023-04-16T11:30:12.041Z,10.18
2023-04-16T11:32:39.439Z,10.43
2023-04-16T11:35:18.229Z,10.46
2023-04-16T11:37:46.465Z,10.14
2023-04-16T11:40:13.908Z,10.43
2023-04-16T11:42:42.522Z,10.25
2023-04-16T11:45:11.492Z,10.14
2023-04-16T11:47:46.526Z,9.79
2023-04-16T11:50:38.026Z,9.91
2023-04-16T11:53:06.566Z,10.14
2023-04-16T11:55:45.071Z,9.43
2023-04-16T11:58:13.446Z,9.55
2023-04-16T12:00:41.854Z,9.33
2023-04-16T12:03:09.322Z,9.58
2023-04-16T12:05:39.455Z,9.46
2023-04-16T12:08:08.678Z,9.59
2023-04-16T12:10:37.930Z,9.59
2023-04-16T12:13:15.363Z,9.71
2023-04-16T12:15:46.246Z,9.56
2023-04-16T12:18:13.302Z,9.44
2023-04-16T12:20:44.118Z,9.41
2023-04-16T12:23:22.330Z,9.58
2023-04-16T12:25:50.272Z,9.24
2023-04-16T12:28:31.891Z,9.66
2023-04-16T12:30:59.200Z,9.58
2023-04-16T12:33:26.374Z,9.85
2023-04-16T12:35:53.355Z,9.62
2023-04-16T12:38:22.803Z,9.72
2023-04-16T12:40:51.184Z,9.67
2023-04-16T12:43:18.241Z,9.72
2023-04-16T12:45:45.185Z,9.94
2023-04-16T12:48:12.243Z,9.67
2023-04-16T12:50:39.962Z,9.76
2023-04-16T12:53:06.882Z,9.67
2023-04-16T12:55:33.771Z,9.97
2023-04-16T12:58:01.228Z,10.11
2023-04-16T13:00:28.182Z,10.26
2023-04-16T13:02:55.314Z,10.19
2023-04-16T13:05:22.553Z,10.24
2023-04-16T13:07:49.721Z,10.06
2023-04-16T13:10:16.945Z,10.26
2023-04-16T13:12:43.914Z,10.08
2023-04-16T13:15:13.770Z,10.02
2023-04-16T13:17:40.802Z,10.40
2023-04-16T13:20:08.193Z,10.77
2023-04-16T13:22:35.653Z,11.04
2023-04-16T13:25:02.484Z,10.64
2023-04-16T13:27:29.462Z,11.10
2023-04-16T13:29:56.714Z,11.25
2023-04-16T13:32:23.841Z,11.49
2023-04-16T13:34:50.802Z,11.91
2023-04-16T13:37:17.822Z,11.67
2023-04-16T13:39:45.416Z,11.15
2023-04-16T13:42:12.350Z,11.24
2023-04-16T13:44:39.217Z,10.79
2023-04-16T13:47:06.552Z,10.93
2023-04-16T13:49:36.198Z,10.98
2023-04-16T13:52:03.549Z,11.24
2023-04-16T13:54:30.480Z,10.54
2023-04-16T13:56:57.473Z,10.90
2023-04-16T13:59:24.742Z,11.20
2023-04-16T14:01:51.793Z,11.53
2023-04-16T14:04:18.908Z,11.19
2023-04-16T14:06:45.962Z,11.25
2023-04-16T14:09:13.133Z,10.88
2023-04-16T14:11:40.317Z,10.86
2023-04-16T14:14:07.351Z,11.38
2023-04-16T14:16:34.911Z,11.15
2023-04-16T14:19:01.901Z,10.93
2023-04-16T14:21:28.980Z,11.14
2023-04-16T14:23:56.050Z,10.94
2023-04-16T14:26:23.226Z,10.98
2023-04-16T14:28:51.278Z,11.39
2023-04-16T14:31:18.447Z,11.02
2023-04-16T14:33:45.357Z,11.09
2023-04-16T14:36:12.352Z,11.18
2023-04-16T14:38:39.816Z,11.14
2023-04-16T14:41:07.066Z,11.25
2023-04-16T14:43:33.947Z,11.41
2023-04-16T14:46:01.022Z,11.41
2023-04-16T14:48:27.915Z,11.20
2023-04-16T14:50:54.731Z,11.15
2023-04-16T14:53:24.009Z,10.78
2023-04-16T14:55:52.420Z,11.04
2023-04-16T14:58:19.407Z,11.03
2023-04-16T15:00:46.340Z,11.08
2023-04-16T15:03:13.550Z,10.92
2023-04-16T15:05:40.523Z,10.97
2023-04-16T15:08:07.460Z,11.38
2023-04-16T15:10:35.325Z,11.38
2023-04-16T15:13:02.181Z,11.42
2023-04-16T15:15:29.093Z,11.25
2023-04-16T15:17:57.194Z,11.03
2023-04-16T15:20:24.096Z,10.91
2023-04-16T15:22:51.077Z,10.99
2023-04-16T15:25:17.991Z,10.71
2023-04-16T15:27:44.820Z,10.93
2023-04-16T15:30:12.776Z,10.52
2023-04-16T15:32:39.670Z,10.42
2023-04-16T15:35:07.561Z,10.58
2023-04-16T15:37:35.527Z,10.18
2023-04-16T15:40:05.705Z,11.13
2023-04-16T15:42:32.578Z,10.78
2023-04-16T15:44:59.580Z,11.05
2023-04-16T15:47:26.623Z,10.54
2023-04-16T15:49:53.536Z,10.82
2023-04-16T15:52:20.637Z,10.64
2023-04-16T15:54:47.574Z,10.37
2023-04-16T15:57:14.627Z,10.29
2023-04-16T15:59:41.542Z,10.20
2023-04-16T16:02:08.610Z,9.69
2023-04-16T16:04:35.623Z,9.56
2023-04-16T16:07:04.236Z,10.26
2023-04-16T16:09:31.194Z,10.06
2023-04-16T16:11:59.949Z,9.96
2023-04-16T16:14:27.150Z,10.07
2023-04-16T16:16:54.105Z,10.27
2023-04-16T16:19:21.135Z,10.20
2023-04-16T16:21:47.973Z,9.97
2023-04-16T16:24:15.733Z,9.74
2023-04-16T16:26:42.598Z,10.03
2023-04-16T16:29:09.752Z,9.82
2023-04-16T16:31:39.717Z,9.98
2023-04-16T16:34:06.601Z,9.88
2023-04-16T16:36:36.915Z,10.21
2023-04-16T16:39:04.999Z,9.96
2023-04-16T16:41:32.002Z,9.57
2023-04-16T16:43:59.316Z,9.78
2023-04-16T16:46:26.386Z,9.98
2023-04-16T16:48:53.704Z,9.69
2023-04-16T16:51:20.702Z,9.56
2023-04-16T16:53:47.566Z,9.51
2023-04-16T16:56:14.474Z,9.67
2023-04-16T16:58:41.945Z,9.72
2023-04-16T17:01:08.976Z,9.57
2023-04-16T17:03:36.080Z,9.27
2023-04-16T17:06:03.497Z,9.42
2023-04-16T17:08:30.457Z,9.40
2023-04-16T17:10:57.413Z,9.14
2023-04-16T17:13:25.420Z,8.97
2023-04-16T17:15:52.353Z,9.11
2023-04-16T17:18:19.333Z,9.18
2023-04-16T17:20:46.229Z,9.04
2023-04-16T17:23:14.311Z,8.84
2023-04-16T17:25:41.206Z,8.80
2023-04-16T17:28:08.078Z,8.91
2023-04-16T17:30:34.959Z,8.74
2023-04-16T17:33:04.718Z,8.74
2023-04-16T17:35:31.921Z,8.79
2023-04-16T17:37:58.801Z,8.74
2023-04-16T17:40:25.907Z,8.85
2023-04-16T17:42:52.843Z,8.85
2023-04-16T17:45:19.818Z,8.54
2023-04-16T17:47:46.725Z,8.56
2023-04-16T17:50:13.659Z,8.04
2023-04-16T17:52:40.674Z,8.84
2023-04-16T17:55:08.227Z,8.54
2023-04-16T17:57:35.180Z,8.63
2023-04-16T18:00:02.146Z,8.71
2023-04-16T18:02:42.296Z,8.35
2023-04-16T18:05:09.873Z,8.51
2023-04-16T18:07:37.787Z,8.46
2023-04-16T18:10:05.457Z,8.50
2023-04-16T18:12:32.411Z,8.42
2023-04-16T18:14:59.435Z,8.61
2023-04-16T18:17:26.403Z,8.10
2023-04-16T18:19:53.383Z,8.22
2023-04-16T18:22:20.310Z,7.62
2023-04-16T18:24:47.225Z,8.02
2023-04-16T18:27:14.204Z,7.97
2023-04-16T18:29:43.779Z,7.96
2023-04-16T18:32:12.518Z,7.91
2023-04-16T18:34:40.400Z,8.22
2023-04-16T18:37:07.313Z,7.90
2023-04-16T18:39:36.726Z,8.15
2023-04-16T18:42:04.119Z,7.92
2023-04-16T18:44:31.113Z,7.79
2023-04-16T18:46:57.993Z,7.96
2023-04-16T18:49:27.481Z,8.11
2023-04-16T18:51:57.168Z,8.06
2023-04-16T18:54:24.109Z,8.00
2023-04-16T18:56:51.072Z,7.85
2023-04-16T18:59:17.911Z,7.89
2023-04-16T19:01:44.851Z,7.95
2023-04-16T19:04:11.780Z,7.87
2023-04-16T19:06:38.852Z,7.89
2023-04-16T19:09:06.332Z,7.72
2023-04-16T19:11:33.269Z,7.69
2023-04-16T19:14:02.396Z,8.04
2023-04-16T19:16:29.971Z,7.05
2023-04-16T19:18:56.970Z,7.89
2023-04-16T19:21:44.142Z,7.63
2023-04-16T19:24:11.026Z,7.70
2023-04-16T19:26:37.884Z,7.68
2023-04-16T19:29:04.867Z,7.54
2023-04-16T19:31:32.063Z,7.64
2023-04-16T19:33:59.023Z,7.23
2023-04-16T19:36:26.020Z,7.59
2023-04-16T19:38:53.020Z,7.58
2023-04-16T19:41:19.988Z,7.63
2023-04-16T19:43:46.901Z,7.62
2023-04-16T19:46:15.697Z,7.79
2023-04-16T19:48:42.748Z,7.36
2023-04-16T19:51:09.709Z,7.57
2023-04-16T19:53:36.706Z,7.52
2023-04-16T19:56:03.788Z,7.78
2023-04-16T19:58:30.725Z,7.47
2023-04-16T20:00:57.758Z,7.32
2023-04-16T20:03:24.834Z,7.17
2023-04-16T20:05:52.006Z,7.35
2023-04-16T20:08:18.989Z,7.20
2023-04-16T20:10:46.058Z,7.20
2023-04-16T20:13:13.925Z,7.44
2023-04-16T20:15:40.856Z,7.34
2023-04-16T20:18:09.108Z,7.34
2023-04-16T20:20:38.022Z,7.34
2023-04-16T20:23:05.411Z,7.44
2023-04-16T20:25:32.396Z,7.09
2023-04-16T20:27:59.382Z,7.55
2023-04-16T20:30:30.688Z,6.60
2023-04-16T20:32:57.634Z,7.52
2023-04-16T20:35:24.629Z,7.19
2023-04-16T20:37:51.699Z,6.89
2023-04-16T20:40:18.707Z,6.37
2023-04-16T20:42:49.254Z,7.15
2023-04-16T20:45:16.244Z,7.05
2023-04-16T20:47:43.870Z,7.13
2023-04-16T20:50:11.468Z,7.33
2023-04-16T20:52:38.414Z,7.29
2023-04-16T20:55:06.034Z,7.28
2023-04-16T20:57:32.965Z,7.16
2023-04-16T21:00:00.046Z,7.19
2023-04-16T21:02:28.757Z,6.94
2023-04-16T21:04:55.895Z,7.12
2023-04-16T21:07:22.902Z,6.91
2023-04-16T21:09:49.924Z,6.91
2023-04-16T21:12:16.829Z,7.17
2023-04-16T21:14:43.749Z,7.06
2023-04-16T21:17:10.604Z,7.02
2023-04-16T21:19:37.593Z,6.88
2023-04-16T21:22:04.668Z,6.98
2023-04-16T21:24:32.371Z,6.89
2023-04-16T21:26:59.318Z,7.07
2023-04-16T21:29:26.419Z,6.92
2023-04-16T21:31:54.079Z,6.84
2023-04-16T21:34:21.023Z,6.78
2023-04-16T21:36:48.018Z,6.66
2023-04-16T21:39:17.650Z,6.84
2023-04-16T21:41:44.529Z,6.66
2023-04-16T21:44:17.970Z,6.75
2023-04-16T21:46:44.862Z,6.51
2023-04-16T21:49:11.981Z,6.68
2023-04-16T21:51:40.626Z,6.81
2023-04-16T21:54:07.808Z,6.43
2023-04-16T21:56:38.021Z,6.50
2023-04-16T21:59:07.790Z,6.41
2023-04-16T22:01:34.810Z,6.53
2023-04-16T22:04:02.317Z,6.50
2023-04-16T22:06:29.496Z,6.63
2023-04-16T22:08:59.134Z,6.68
2023-04-16T22:11:26.108Z,6.54
2023-04-16T22:13:53.854Z,6.53
2023-04-16T22:16:20.861Z,6.74
2023-04-16T22:18:48.214Z,6.68
2023-04-16T22:21:15.638Z,6.56
2023-04-16T22:23:42.497Z,6.72
2023-04-16T22:26:09.450Z,6.68
2023-04-16T22:28:38.453Z,6.56
2023-04-16T22:31:05.334Z,6.71
2023-04-16T22:33:32.424Z,6.39
2023-04-16T22:36:02.687Z,6.62
2023-04-16T22:38:29.553Z,6.51
2023-04-16T22:40:56.736Z,6.26
2023-04-16T22:43:23.675Z,6.75
2023-04-16T22:45:50.596Z,6.59
2023-04-16T22:48:17.501Z,6.78
2023-04-16T22:50:51.253Z,6.76
2023-04-16T22:53:18.455Z,6.90
2023-04-16T22:55:45.315Z,6.74
2023-04-16T22:58:12.307Z,6.64
2023-04-16T23:00:39.510Z,6.41
2023-04-16T23:03:06.517Z,6.63
2023-04-16T23:05:34.008Z,6.55
2023-04-16T23:08:01.463Z,6.57
2023-04-16T23:10:28.332Z,6.71
2023-04-16T23:12:58.634Z,6.79
2023-04-16T23:15:25.659Z,6.73
2023-04-16T23:17:52.512Z,6.65
2023-04-16T23:20:19.602Z,6.85
2023-04-16T23:22:46.971Z,6.68
2023-04-16T23:25:13.836Z,6.78
2023-04-16T23:27:40.642Z,6.58
2023-04-16T23:30:08.449Z,6.45
2023-04-16T23:32:35.420Z,6.43
2023-04-16T23:35:02.398Z,6.55
2023-04-16T23:37:29.339Z,6.42
2023-04-16T23:39:56.221Z,6.50
2023-04-16T23:42:23.168Z,6.14
2023-04-16T23:44:49.989Z,6.27
2023-04-16T23:47:17.200Z,6.41
2023-04-16T23:49:44.092Z,6.61
2023-04-16T23:52:11.052Z,6.55
2023-04-16T23:54:37.899Z,6.47
2023-04-16T23:57:05.135Z,6.49
2023-04-16T23:59:32.073Z,6.28
